sensor_id;sensor_type;location;lat;lon;timestamp;P1;durP1;ratioP1;P2;durP2;ratioP2
12519;SDS011;6325;49.540;8.364;2023-07-31T00:01:59;1.50;;;1.40;;
12519;SDS011;6325;49.540;8.364;2023-07-31T00:04:26;1.33;;;1.23;;
12519;SDS011;6325;49.540;8.364;2023-07-31T00:06:53;1.42;;;1.23;;
12519;SDS011;6325;49.540;8.364;2023-07-31T00:09:20;2.00;;;1.20;;
12519;SDS011;6325;49.540;8.364;2023-07-31T00:11:49;1.67;;;1.50;;
12519;SDS011;6325;49.540;8.364;2023-07-31T00:14:16;1.50;;;1.40;;
12519;SDS011;6325;49.540;8.364;2023-07-31T00:16:43;1.55;;;1.30;;
12519;SDS011;6325;49.540;8.364;2023-07-31T00:19:10;1.50;;;1.40;;
12519;SDS011;6325;49.540;8.364;2023-07-31T00:21:37;1.73;;;1.50;;
12519;SDS011;6325;49.540;8.364;2023-07-31T00:24:05;1.30;;;1.20;;
12519;SDS011;6325;49.540;8.364;2023-07-31T00:26:32;1.30;;;1.20;;
12519;SDS011;6325;49.540;8.364;2023-07-31T00:29:00;1.42;;;1.30;;
12519;SDS011;6325;49.540;8.364;2023-07-31T00:31:27;1.40;;;1.30;;
12519;SDS011;6325;49.540;8.364;2023-07-31T00:33:54;2.17;;;1.50;;
12519;SDS011;6325;49.540;8.364;2023-07-31T00:36:22;1.35;;;1.25;;
12519;SDS011;6325;49.540;8.364;2023-07-31T00:38:49;1.40;;;1.30;;
12519;SDS011;6325;49.540;8.364;2023-07-31T00:41:16;1.80;;;1.40;;
12519;SDS011;6325;49.540;8.364;2023-07-31T00:43:43;1.77;;;1.35;;
12519;SDS011;6325;49.540;8.364;2023-07-31T00:46:11;1.58;;;1.48;;
12519;SDS011;6325;49.540;8.364;2023-07-31T00:48:39;1.52;;;1.30;;
12519;SDS011;6325;49.540;8.364;2023-07-31T00:51:06;1.60;;;1.50;;
12519;SDS011;6325;49.540;8.364;2023-07-31T00:53:34;2.08;;;1.58;;
12519;SDS011;6325;49.540;8.364;2023-07-31T00:56:01;1.50;;;1.40;;
12519;SDS011;6325;49.540;8.364;2023-07-31T00:58:30;3.03;;;1.58;;
12519;SDS011;6325;49.540;8.364;2023-07-31T01:00:57;2.45;;;1.65;;
12519;SDS011;6325;49.540;8.364;2023-07-31T01:03:26;1.85;;;1.50;;
12519;SDS011;6325;49.540;8.364;2023-07-31T01:05:56;1.52;;;1.42;;
12519;SDS011;6325;49.540;8.364;2023-07-31T01:08:28;1.60;;;1.42;;
12519;SDS011;6325;49.540;8.364;2023-07-31T01:10:58;1.70;;;1.60;;
12519;SDS011;6325;49.540;8.364;2023-07-31T01:13:27;1.90;;;1.60;;
12519;SDS011;6325;49.540;8.364;2023-07-31T01:15:55;1.80;;;1.65;;
12519;SDS011;6325;49.540;8.364;2023-07-31T01:18:22;2.00;;;1.55;;
12519;SDS011;6325;49.540;8.364;2023-07-31T01:20:59;1.70;;;1.60;;
12519;SDS011;6325;49.540;8.364;2023-07-31T01:23:49;1.83;;;1.60;;
12519;SDS011;6325;49.540;8.364;2023-07-31T01:26:20;1.63;;;1.50;;
12519;SDS011;6325;49.540;8.364;2023-07-31T01:28:50;2.42;;;1.60;;
12519;SDS011;6325;49.540;8.364;2023-07-31T01:31:22;1.60;;;1.50;;
12519;SDS011;6325;49.540;8.364;2023-07-31T01:33:50;2.50;;;1.50;;
12519;SDS011;6325;49.540;8.364;2023-07-31T01:36:19;1.67;;;1.50;;
12519;SDS011;6325;49.540;8.364;2023-07-31T01:38:47;1.60;;;1.50;;
12519;SDS011;6325;49.540;8.364;2023-07-31T01:41:16;1.88;;;1.52;;
12519;SDS011;6325;49.540;8.364;2023-07-31T01:43:44;1.80;;;1.70;;
12519;SDS011;6325;49.540;8.364;2023-07-31T01:46:11;2.30;;;1.60;;
12519;SDS011;6325;49.540;8.364;2023-07-31T01:48:39;2.40;;;1.60;;
12519;SDS011;6325;49.540;8.364;2023-07-31T01:51:06;1.60;;;1.50;;
12519;SDS011;6325;49.540;8.364;2023-07-31T01:53:33;1.50;;;1.40;;
12519;SDS011;6325;49.540;8.364;2023-07-31T01:56:00;2.58;;;1.70;;
12519;SDS011;6325;49.540;8.364;2023-07-31T01:58:27;2.10;;;1.52;;
12519;SDS011;6325;49.540;8.364;2023-07-31T02:00:56;1.60;;;1.50;;
12519;SDS011;6325;49.540;8.364;2023-07-31T02:03:24;1.63;;;1.52;;
12519;SDS011;6325;49.540;8.364;2023-07-31T02:05:51;1.70;;;1.60;;
12519;SDS011;6325;49.540;8.364;2023-07-31T02:08:18;2.15;;;1.65;;
12519;SDS011;6325;49.540;8.364;2023-07-31T02:10:45;1.80;;;1.60;;
12519;SDS011;6325;49.540;8.364;2023-07-31T02:13:12;2.45;;;1.60;;
12519;SDS011;6325;49.540;8.364;2023-07-31T02:15:39;2.20;;;1.70;;
12519;SDS011;6325;49.540;8.364;2023-07-31T02:18:08;2.30;;;1.60;;
12519;SDS011;6325;49.540;8.364;2023-07-31T02:20:35;1.95;;;1.60;;
12519;SDS011;6325;49.540;8.364;2023-07-31T02:23:02;1.70;;;1.60;;
12519;SDS011;6325;49.540;8.364;2023-07-31T02:25:29;1.60;;;1.50;;
12519;SDS011;6325;49.540;8.364;2023-07-31T02:27:57;2.08;;;1.55;;
12519;SDS011;6325;49.540;8.364;2023-07-31T02:30:24;2.38;;;1.80;;
12519;SDS011;6325;49.540;8.364;2023-07-31T02:32:52;1.43;;;1.33;;
12519;SDS011;6325;49.540;8.364;2023-07-31T02:35:21;1.60;;;1.50;;
12519;SDS011;6325;49.540;8.364;2023-07-31T02:37:48;2.00;;;1.70;;
12519;SDS011;6325;49.540;8.364;2023-07-31T02:40:15;1.63;;;1.52;;
12519;SDS011;6325;49.540;8.364;2023-07-31T02:42:42;1.97;;;1.70;;
12519;SDS011;6325;49.540;8.364;2023-07-31T02:45:09;2.17;;;1.85;;
12519;SDS011;6325;49.540;8.364;2023-07-31T02:47:36;1.77;;;1.48;;
12519;SDS011;6325;49.540;8.364;2023-07-31T02:50:04;1.70;;;1.60;;
12519;SDS011;6325;49.540;8.364;2023-07-31T02:52:32;2.25;;;1.77;;
12519;SDS011;6325;49.540;8.364;2023-07-31T02:54:59;1.70;;;1.60;;
12519;SDS011;6325;49.540;8.364;2023-07-31T02:57:27;1.88;;;1.60;;
12519;SDS011;6325;49.540;8.364;2023-07-31T02:59:54;1.77;;;1.40;;
12519;SDS011;6325;49.540;8.364;2023-07-31T03:02:21;1.80;;;1.70;;
12519;SDS011;6325;49.540;8.364;2023-07-31T03:04:48;2.33;;;1.80;;
12519;SDS011;6325;49.540;8.364;2023-07-31T03:07:15;1.75;;;1.65;;
12519;SDS011;6325;49.540;8.364;2023-07-31T03:09:44;1.80;;;1.50;;
12519;SDS011;6325;49.540;8.364;2023-07-31T03:12:11;2.05;;;1.63;;
12519;SDS011;6325;49.540;8.364;2023-07-31T03:14:38;2.05;;;1.60;;
12519;SDS011;6325;49.540;8.364;2023-07-31T03:17:05;1.67;;;1.57;;
12519;SDS011;6325;49.540;8.364;2023-07-31T03:19:32;1.98;;;1.63;;
12519;SDS011;6325;49.540;8.364;2023-07-31T03:22:00;3.07;;;1.73;;
12519;SDS011;6325;49.540;8.364;2023-07-31T03:24:28;1.70;;;1.60;;
12519;SDS011;6325;49.540;8.364;2023-07-31T03:26:56;1.75;;;1.52;;
12519;SDS011;6325;49.540;8.364;2023-07-31T03:29:23;1.90;;;1.70;;
12519;SDS011;6325;49.540;8.364;2023-07-31T03:31:50;1.70;;;1.60;;
12519;SDS011;6325;49.540;8.364;2023-07-31T03:34:17;1.67;;;1.58;;
12519;SDS011;6325;49.540;8.364;2023-07-31T03:36:45;2.25;;;1.75;;
12519;SDS011;6325;49.540;8.364;2023-07-31T03:39:12;1.92;;;1.77;;
12519;SDS011;6325;49.540;8.364;2023-07-31T03:41:39;2.25;;;1.75;;
12519;SDS011;6325;49.540;8.364;2023-07-31T03:44:07;1.80;;;1.65;;
12519;SDS011;6325;49.540;8.364;2023-07-31T03:46:34;2.45;;;1.80;;
12519;SDS011;6325;49.540;8.364;2023-07-31T03:49:01;2.00;;;1.70;;
12519;SDS011;6325;49.540;8.364;2023-07-31T03:51:29;1.73;;;1.63;;
12519;SDS011;6325;49.540;8.364;2023-07-31T03:53:56;2.10;;;1.90;;
12519;SDS011;6325;49.540;8.364;2023-07-31T03:56:23;2.10;;;1.60;;
12519;SDS011;6325;49.540;8.364;2023-07-31T03:58:50;2.08;;;1.70;;
12519;SDS011;6325;49.540;8.364;2023-07-31T04:01:19;2.05;;;1.85;;
12519;SDS011;6325;49.540;8.364;2023-07-31T04:03:47;1.77;;;1.60;;
12519;SDS011;6325;49.540;8.364;2023-07-31T04:06:14;2.20;;;1.70;;
12519;SDS011;6325;49.540;8.364;2023-07-31T04:08:43;2.17;;;1.90;;
12519;SDS011;6325;49.540;8.364;2023-07-31T04:11:10;2.23;;;1.70;;
12519;SDS011;6325;49.540;8.364;2023-07-31T04:13:37;2.50;;;1.90;;
12519;SDS011;6325;49.540;8.364;2023-07-31T04:16:04;2.28;;;1.80;;
12519;SDS011;6325;49.540;8.364;2023-07-31T04:18:33;2.15;;;1.67;;
12519;SDS011;6325;49.540;8.364;2023-07-31T04:21:00;1.83;;;1.70;;
12519;SDS011;6325;49.540;8.364;2023-07-31T04:23:27;3.10;;;1.88;;
12519;SDS011;6325;49.540;8.364;2023-07-31T04:25:55;2.00;;;1.90;;
12519;SDS011;6325;49.540;8.364;2023-07-31T04:28:22;1.90;;;1.63;;
12519;SDS011;6325;49.540;8.364;2023-07-31T04:30:51;2.08;;;1.70;;
12519;SDS011;6325;49.540;8.364;2023-07-31T04:33:18;2.35;;;1.80;;
12519;SDS011;6325;49.540;8.364;2023-07-31T04:35:49;1.80;;;1.60;;
12519;SDS011;6325;49.540;8.364;2023-07-31T04:38:17;1.85;;;1.67;;
12519;SDS011;6325;49.540;8.364;2023-07-31T04:40:45;1.80;;;1.70;;
12519;SDS011;6325;49.540;8.364;2023-07-31T04:43:12;1.70;;;1.60;;
12519;SDS011;6325;49.540;8.364;2023-07-31T04:45:39;3.35;;;1.90;;
12519;SDS011;6325;49.540;8.364;2023-07-31T04:48:08;2.25;;;1.73;;
12519;SDS011;6325;49.540;8.364;2023-07-31T04:50:36;2.15;;;1.90;;
12519;SDS011;6325;49.540;8.364;2023-07-31T04:53:04;3.05;;;1.80;;
12519;SDS011;6325;49.540;8.364;2023-07-31T04:55:31;2.23;;;1.63;;
12519;SDS011;6325;49.540;8.364;2023-07-31T04:57:58;2.85;;;1.70;;
12519;SDS011;6325;49.540;8.364;2023-07-31T05:00:26;1.83;;;1.73;;
12519;SDS011;6325;49.540;8.364;2023-07-31T05:02:53;1.70;;;1.60;;
12519;SDS011;6325;49.540;8.364;2023-07-31T05:05:21;3.35;;;1.88;;
12519;SDS011;6325;49.540;8.364;2023-07-31T05:07:48;1.77;;;1.60;;
12519;SDS011;6325;49.540;8.364;2023-07-31T05:10:16;1.60;;;1.50;;
12519;SDS011;6325;49.540;8.364;2023-07-31T05:12:43;1.90;;;1.70;;
12519;SDS011;6325;49.540;8.364;2023-07-31T05:15:11;2.72;;;2.00;;
12519;SDS011;6325;49.540;8.364;2023-07-31T05:17:38;1.73;;;1.60;;
12519;SDS011;6325;49.540;8.364;2023-07-31T05:20:05;3.58;;;1.85;;
12519;SDS011;6325;49.540;8.364;2023-07-31T05:22:33;2.10;;;1.90;;
12519;SDS011;6325;49.540;8.364;2023-07-31T05:25:00;2.10;;;1.90;;
12519;SDS011;6325;49.540;8.364;2023-07-31T05:27:29;2.30;;;1.88;;
12519;SDS011;6325;49.540;8.364;2023-07-31T05:29:56;1.95;;;1.83;;
12519;SDS011;6325;49.540;8.364;2023-07-31T05:32:23;2.58;;;1.98;;
12519;SDS011;6325;49.540;8.364;2023-07-31T05:34:50;3.90;;;2.10;;
12519;SDS011;6325;49.540;8.364;2023-07-31T05:37:18;2.58;;;1.83;;
12519;SDS011;6325;49.540;8.364;2023-07-31T05:39:45;2.10;;;1.90;;
12519;SDS011;6325;49.540;8.364;2023-07-31T05:42:12;1.98;;;1.75;;
12519;SDS011;6325;49.540;8.364;2023-07-31T05:44:41;1.98;;;1.77;;
12519;SDS011;6325;49.540;8.364;2023-07-31T05:47:08;2.33;;;1.85;;
12519;SDS011;6325;49.540;8.364;2023-07-31T05:49:35;2.05;;;1.85;;
12519;SDS011;6325;49.540;8.364;2023-07-31T05:52:03;2.80;;;2.00;;
12519;SDS011;6325;49.540;8.364;2023-07-31T05:54:31;2.10;;;1.90;;
12519;SDS011;6325;49.540;8.364;2023-07-31T05:56:58;1.98;;;1.77;;
12519;SDS011;6325;49.540;8.364;2023-07-31T05:59:25;2.65;;;1.80;;
12519;SDS011;6325;49.540;8.364;2023-07-31T06:01:54;2.30;;;2.10;;
12519;SDS011;6325;49.540;8.364;2023-07-31T06:04:21;2.47;;;1.80;;
12519;SDS011;6325;49.540;8.364;2023-07-31T06:06:50;2.42;;;1.90;;
12519;SDS011;6325;49.540;8.364;2023-07-31T06:09:17;2.22;;;1.85;;
12519;SDS011;6325;49.540;8.364;2023-07-31T06:11:45;2.17;;;1.80;;
12519;SDS011;6325;49.540;8.364;2023-07-31T06:14:12;2.80;;;1.80;;
12519;SDS011;6325;49.540;8.364;2023-07-31T06:16:39;2.15;;;1.90;;
12519;SDS011;6325;49.540;8.364;2023-07-31T06:19:08;2.00;;;1.80;;
12519;SDS011;6325;49.540;8.364;2023-07-31T06:21:35;2.17;;;1.93;;
12519;SDS011;6325;49.540;8.364;2023-07-31T06:24:03;2.28;;;1.90;;
12519;SDS011;6325;49.540;8.364;2023-07-31T06:26:30;2.00;;;1.90;;
12519;SDS011;6325;49.540;8.364;2023-07-31T06:28:58;2.95;;;1.90;;
12519;SDS011;6325;49.540;8.364;2023-07-31T06:31:25;3.60;;;2.00;;
12519;SDS011;6325;49.540;8.364;2023-07-31T06:33:52;2.17;;;1.80;;
12519;SDS011;6325;49.540;8.364;2023-07-31T06:36:21;2.40;;;1.80;;
12519;SDS011;6325;49.540;8.364;2023-07-31T06:38:48;2.40;;;1.88;;
12519;SDS011;6325;49.540;8.364;2023-07-31T06:41:15;2.37;;;1.77;;
12519;SDS011;6325;49.540;8.364;2023-07-31T06:43:42;2.00;;;1.80;;
12519;SDS011;6325;49.540;8.364;2023-07-31T06:46:10;1.60;;;1.50;;
12519;SDS011;6325;49.540;8.364;2023-07-31T06:48:37;2.00;;;1.80;;
12519;SDS011;6325;49.540;8.364;2023-07-31T06:51:04;3.40;;;2.00;;
12519;SDS011;6325;49.540;8.364;2023-07-31T06:53:33;3.50;;;1.90;;
12519;SDS011;6325;49.540;8.364;2023-07-31T06:56:00;1.75;;;1.65;;
12519;SDS011;6325;49.540;8.364;2023-07-31T06:58:27;2.60;;;1.80;;
12519;SDS011;6325;49.540;8.364;2023-07-31T07:00:54;3.28;;;1.98;;
12519;SDS011;6325;49.540;8.364;2023-07-31T07:03:22;3.03;;;1.90;;
12519;SDS011;6325;49.540;8.364;2023-07-31T07:05:50;2.25;;;1.80;;
12519;SDS011;6325;49.540;8.364;2023-07-31T07:08:17;2.53;;;2.03;;
12519;SDS011;6325;49.540;8.364;2023-07-31T07:10:45;2.25;;;2.05;;
12519;SDS011;6325;49.540;8.364;2023-07-31T07:13:13;3.40;;;1.90;;
12519;SDS011;6325;49.540;8.364;2023-07-31T07:15:40;2.08;;;1.88;;
12519;SDS011;6325;49.540;8.364;2023-07-31T07:18:07;2.90;;;2.00;;
12519;SDS011;6325;49.540;8.364;2023-07-31T07:20:35;2.80;;;1.73;;
12519;SDS011;6325;49.540;8.364;2023-07-31T07:23:02;2.72;;;1.88;;
12519;SDS011;6325;49.540;8.364;2023-07-31T07:25:29;2.47;;;1.93;;
12519;SDS011;6325;49.540;8.364;2023-07-31T07:27:58;2.33;;;1.80;;
12519;SDS011;6325;49.540;8.364;2023-07-31T07:30:25;1.83;;;1.60;;
12519;SDS011;6325;49.540;8.364;2023-07-31T07:32:52;2.17;;;1.88;;
12519;SDS011;6325;49.540;8.364;2023-07-31T07:35:19;1.83;;;1.63;;
12519;SDS011;6325;49.540;8.364;2023-07-31T07:37:48;2.83;;;1.85;;
12519;SDS011;6325;49.540;8.364;2023-07-31T07:40:16;2.30;;;1.77;;
12519;SDS011;6325;49.540;8.364;2023-07-31T07:42:43;2.13;;;1.80;;
12519;SDS011;6325;49.540;8.364;2023-07-31T07:45:14;2.28;;;2.05;;
12519;SDS011;6325;49.540;8.364;2023-07-31T07:47:41;2.25;;;1.77;;
12519;SDS011;6325;49.540;8.364;2023-07-31T07:50:09;1.83;;;1.73;;
12519;SDS011;6325;49.540;8.364;2023-07-31T07:52:36;2.00;;;1.80;;
12519;SDS011;6325;49.540;8.364;2023-07-31T07:55:04;3.50;;;2.30;;
12519;SDS011;6325;49.540;8.364;2023-07-31T07:57:31;4.85;;;2.45;;
12519;SDS011;6325;49.540;8.364;2023-07-31T07:59:58;2.43;;;2.00;;
12519;SDS011;6325;49.540;8.364;2023-07-31T08:02:27;1.95;;;1.70;;
12519;SDS011;6325;49.540;8.364;2023-07-31T08:04:54;2.42;;;1.70;;
12519;SDS011;6325;49.540;8.364;2023-07-31T08:07:21;3.60;;;2.05;;
12519;SDS011;6325;49.540;8.364;2023-07-31T08:09:48;5.50;;;2.65;;
12519;SDS011;6325;49.540;8.364;2023-07-31T08:12:15;4.25;;;2.30;;
12519;SDS011;6325;49.540;8.364;2023-07-31T08:14:42;2.88;;;1.80;;
12519;SDS011;6325;49.540;8.364;2023-07-31T08:17:09;1.70;;;1.60;;
12519;SDS011;6325;49.540;8.364;2023-07-31T08:19:38;2.67;;;1.83;;
12519;SDS011;6325;49.540;8.364;2023-07-31T08:22:05;3.15;;;1.80;;
12519;SDS011;6325;49.540;8.364;2023-07-31T08:24:32;2.85;;;1.95;;
12519;SDS011;6325;49.540;8.364;2023-07-31T08:26:59;2.30;;;2.00;;
12519;SDS011;6325;49.540;8.364;2023-07-31T08:29:26;3.85;;;2.10;;
12519;SDS011;6325;49.540;8.364;2023-07-31T08:31:54;2.33;;;2.00;;
12519;SDS011;6325;49.540;8.364;2023-07-31T08:34:21;2.17;;;1.90;;
12519;SDS011;6325;49.540;8.364;2023-07-31T08:36:49;2.80;;;2.10;;
12519;SDS011;6325;49.540;8.364;2023-07-31T08:39:16;2.15;;;1.92;;
12519;SDS011;6325;49.540;8.364;2023-07-31T08:41:44;2.30;;;2.10;;
12519;SDS011;6325;49.540;8.364;2023-07-31T08:44:11;2.40;;;1.90;;
12519;SDS011;6325;49.540;8.364;2023-07-31T08:46:39;2.35;;;1.90;;
12519;SDS011;6325;49.540;8.364;2023-07-31T08:49:06;2.10;;;1.90;;
12519;SDS011;6325;49.540;8.364;2023-07-31T08:51:34;2.13;;;1.80;;
12519;SDS011;6325;49.540;8.364;2023-07-31T08:54:03;2.05;;;1.83;;
12519;SDS011;6325;49.540;8.364;2023-07-31T08:56:30;3.05;;;2.00;;
12519;SDS011;6325;49.540;8.364;2023-07-31T08:58:58;2.88;;;1.95;;
12519;SDS011;6325;49.540;8.364;2023-07-31T09:01:26;2.47;;;1.90;;
12519;SDS011;6325;49.540;8.364;2023-07-31T09:03:56;2.50;;;1.90;;
12519;SDS011;6325;49.540;8.364;2023-07-31T09:06:25;2.30;;;1.85;;
12519;SDS011;6325;49.540;8.364;2023-07-31T09:08:54;2.40;;;1.90;;
12519;SDS011;6325;49.540;8.364;2023-07-31T09:11:23;2.35;;;1.75;;
12519;SDS011;6325;49.540;8.364;2023-07-31T09:13:51;2.15;;;1.85;;
12519;SDS011;6325;49.540;8.364;2023-07-31T09:16:19;3.23;;;2.10;;
12519;SDS011;6325;49.540;8.364;2023-07-31T09:18:55;1.85;;;1.73;;
12519;SDS011;6325;49.540;8.364;2023-07-31T09:21:23;2.60;;;2.15;;
12519;SDS011;6325;49.540;8.364;2023-07-31T09:23:53;2.28;;;2.03;;
12519;SDS011;6325;49.540;8.364;2023-07-31T09:26:31;2.28;;;1.83;;
12519;SDS011;6325;49.540;8.364;2023-07-31T09:28:58;2.30;;;2.03;;
12519;SDS011;6325;49.540;8.364;2023-07-31T09:31:32;2.47;;;1.90;;
12519;SDS011;6325;49.540;8.364;2023-07-31T09:34:00;2.20;;;2.00;;
12519;SDS011;6325;49.540;8.364;2023-07-31T09:36:28;3.15;;;2.50;;
12519;SDS011;6325;49.540;8.364;2023-07-31T09:38:58;2.33;;;1.90;;
12519;SDS011;6325;49.540;8.364;2023-07-31T09:41:28;2.58;;;2.00;;
12519;SDS011;6325;49.540;8.364;2023-07-31T09:43:56;2.35;;;2.15;;
12519;SDS011;6325;49.540;8.364;2023-07-31T09:46:23;3.40;;;2.20;;
12519;SDS011;6325;49.540;8.364;2023-07-31T09:49:02;2.40;;;2.00;;
12519;SDS011;6325;49.540;8.364;2023-07-31T09:51:30;2.47;;;2.08;;
12519;SDS011;6325;49.540;8.364;2023-07-31T09:53:57;2.30;;;2.00;;
12519;SDS011;6325;49.540;8.364;2023-07-31T09:56:24;2.75;;;2.10;;
12519;SDS011;6325;49.540;8.364;2023-07-31T09:58:52;2.72;;;2.20;;
12519;SDS011;6325;49.540;8.364;2023-07-31T10:01:22;2.90;;;2.20;;
12519;SDS011;6325;49.540;8.364;2023-07-31T10:03:49;2.27;;;1.93;;
12519;SDS011;6325;49.540;8.364;2023-07-31T10:06:16;2.97;;;2.13;;
12519;SDS011;6325;49.540;8.364;2023-07-31T10:08:44;2.95;;;2.03;;
12519;SDS011;6325;49.540;8.364;2023-07-31T10:11:14;2.92;;;2.20;;
12519;SDS011;6325;49.540;8.364;2023-07-31T10:13:42;3.60;;;2.45;;
12519;SDS011;6325;49.540;8.364;2023-07-31T10:16:09;2.72;;;2.20;;
12519;SDS011;6325;49.540;8.364;2023-07-31T10:18:38;2.53;;;2.30;;
12519;SDS011;6325;49.540;8.364;2023-07-31T10:21:06;2.20;;;1.98;;
12519;SDS011;6325;49.540;8.364;2023-07-31T10:23:34;3.33;;;2.20;;
12519;SDS011;6325;49.540;8.364;2023-07-31T10:26:01;3.00;;;2.40;;
12519;SDS011;6325;49.540;8.364;2023-07-31T10:28:30;3.63;;;2.60;;
12519;SDS011;6325;49.540;8.364;2023-07-31T10:30:59;2.50;;;2.30;;
12519;SDS011;6325;49.540;8.364;2023-07-31T10:33:27;2.58;;;2.30;;
12519;SDS011;6325;49.540;8.364;2023-07-31T10:38:38;2.70;;;2.13;;
12519;SDS011;6325;49.540;8.364;2023-07-31T10:41:07;2.55;;;2.30;;
12519;SDS011;6325;49.540;8.364;2023-07-31T10:43:35;2.83;;;2.40;;
12519;SDS011;6325;49.540;8.364;2023-07-31T10:46:06;3.30;;;2.08;;
12519;SDS011;6325;49.540;8.364;2023-07-31T10:48:34;2.80;;;2.10;;
12519;SDS011;6325;49.540;8.364;2023-07-31T10:51:06;2.35;;;2.10;;
12519;SDS011;6325;49.540;8.364;2023-07-31T10:53:33;2.30;;;2.10;;
12519;SDS011;6325;49.540;8.364;2023-07-31T10:56:02;2.78;;;2.22;;
12519;SDS011;6325;49.540;8.364;2023-07-31T10:58:30;2.70;;;2.50;;
12519;SDS011;6325;49.540;8.364;2023-07-31T11:00:58;3.00;;;2.50;;
12519;SDS011;6325;49.540;8.364;2023-07-31T11:03:25;2.40;;;2.20;;
12519;SDS011;6325;49.540;8.364;2023-07-31T11:05:55;2.55;;;2.35;;
12519;SDS011;6325;49.540;8.364;2023-07-31T11:08:28;2.50;;;2.17;;
12519;SDS011;6325;49.540;8.364;2023-07-31T11:11:05;2.43;;;2.13;;
12519;SDS011;6325;49.540;8.364;2023-07-31T11:13:39;2.30;;;2.10;;
12519;SDS011;6325;49.540;8.364;2023-07-31T11:16:07;2.80;;;2.50;;
12519;SDS011;6325;49.540;8.364;2023-07-31T11:18:34;2.85;;;2.40;;
12519;SDS011;6325;49.540;8.364;2023-07-31T11:21:01;3.00;;;2.60;;
12519;SDS011;6325;49.540;8.364;2023-07-31T11:23:28;3.45;;;2.40;;
12519;SDS011;6325;49.540;8.364;2023-07-31T11:25:58;2.60;;;2.17;;
12519;SDS011;6325;49.540;8.364;2023-07-31T11:28:31;2.30;;;2.10;;
12519;SDS011;6325;49.540;8.364;2023-07-31T11:30:59;2.87;;;2.30;;
12519;SDS011;6325;49.540;8.364;2023-07-31T11:33:26;2.30;;;2.10;;
12519;SDS011;6325;49.540;8.364;2023-07-31T11:35:53;2.77;;;2.13;;
12519;SDS011;6325;49.540;8.364;2023-07-31T11:38:21;2.58;;;2.35;;
12519;SDS011;6325;49.540;8.364;2023-07-31T11:40:49;2.17;;;1.90;;
12519;SDS011;6325;49.540;8.364;2023-07-31T11:43:17;2.60;;;2.13;;
12519;SDS011;6325;49.540;8.364;2023-07-31T11:45:46;2.30;;;2.10;;
12519;SDS011;6325;49.540;8.364;2023-07-31T11:48:18;2.33;;;2.13;;
12519;SDS011;6325;49.540;8.364;2023-07-31T11:50:45;2.40;;;2.20;;
12519;SDS011;6325;49.540;8.364;2023-07-31T11:53:14;2.58;;;2.15;;
12519;SDS011;6325;49.540;8.364;2023-07-31T11:55:42;3.13;;;2.57;;
12519;SDS011;6325;49.540;8.364;2023-07-31T11:58:09;3.47;;;2.30;;
12519;SDS011;6325;49.540;8.364;2023-07-31T12:00:36;2.35;;;2.10;;
12519;SDS011;6325;49.540;8.364;2023-07-31T12:03:05;2.63;;;2.15;;
12519;SDS011;6325;49.540;8.364;2023-07-31T12:05:32;1.90;;;1.80;;
12519;SDS011;6325;49.540;8.364;2023-07-31T12:07:59;2.72;;;2.10;;
12519;SDS011;6325;49.540;8.364;2023-07-31T12:10:27;2.10;;;1.90;;
12519;SDS011;6325;49.540;8.364;2023-07-31T12:12:55;2.40;;;2.20;;
12519;SDS011;6325;49.540;8.364;2023-07-31T12:15:28;3.10;;;2.25;;
12519;SDS011;6325;49.540;8.364;2023-07-31T12:17:56;2.80;;;2.08;;
12519;SDS011;6325;49.540;8.364;2023-07-31T12:20:25;2.42;;;2.20;;
12519;SDS011;6325;49.540;8.364;2023-07-31T12:22:55;2.20;;;2.00;;
12519;SDS011;6325;49.540;8.364;2023-07-31T12:25:28;2.60;;;2.10;;
12519;SDS011;6325;49.540;8.364;2023-07-31T12:27:55;3.00;;;2.70;;
12519;SDS011;6325;49.540;8.364;2023-07-31T12:30:26;2.15;;;1.95;;
12519;SDS011;6325;49.540;8.364;2023-07-31T12:32:53;2.83;;;2.38;;
12519;SDS011;6325;49.540;8.364;2023-07-31T12:35:21;2.22;;;2.03;;
12519;SDS011;6325;49.540;8.364;2023-07-31T12:37:49;8.02;;;5.10;;
12519;SDS011;6325;49.540;8.364;2023-07-31T12:40:16;3.90;;;2.83;;
12519;SDS011;6325;49.540;8.364;2023-07-31T12:42:43;3.53;;;2.55;;
12519;SDS011;6325;49.540;8.364;2023-07-31T12:45:11;2.30;;;2.10;;
12519;SDS011;6325;49.540;8.364;2023-07-31T12:47:38;2.40;;;2.20;;
12519;SDS011;6325;49.540;8.364;2023-07-31T12:50:05;1.90;;;1.80;;
12519;SDS011;6325;49.540;8.364;2023-07-31T12:52:33;3.42;;;2.47;;
12519;SDS011;6325;49.540;8.364;2023-07-31T12:55:01;3.15;;;2.85;;
12519;SDS011;6325;49.540;8.364;2023-07-31T12:57:29;2.20;;;1.98;;
12519;SDS011;6325;49.540;8.364;2023-07-31T12:59:56;2.27;;;2.00;;
12519;SDS011;6325;49.540;8.364;2023-07-31T13:02:25;2.20;;;2.00;;
12519;SDS011;6325;49.540;8.364;2023-07-31T13:04:52;2.20;;;1.90;;
12519;SDS011;6325;49.540;8.364;2023-07-31T13:07:21;2.92;;;2.60;;
12519;SDS011;6325;49.540;8.364;2023-07-31T13:09:48;1.83;;;1.73;;
12519;SDS011;6325;49.540;8.364;2023-07-31T13:12:17;2.42;;;2.22;;
12519;SDS011;6325;49.540;8.364;2023-07-31T13:14:44;2.30;;;2.10;;
12519;SDS011;6325;49.540;8.364;2023-07-31T13:17:11;3.28;;;2.83;;
12519;SDS011;6325;49.540;8.364;2023-07-31T13:19:38;3.85;;;2.80;;
12519;SDS011;6325;49.540;8.364;2023-07-31T13:22:05;3.05;;;2.10;;
12519;SDS011;6325;49.540;8.364;2023-07-31T13:24:32;3.08;;;2.67;;
12519;SDS011;6325;49.540;8.364;2023-07-31T13:27:02;2.30;;;2.10;;
12519;SDS011;6325;49.540;8.364;2023-07-31T13:29:31;2.10;;;1.90;;
12519;SDS011;6325;49.540;8.364;2023-07-31T13:31:58;3.70;;;3.10;;
12519;SDS011;6325;49.540;8.364;2023-07-31T13:34:25;2.58;;;2.30;;
12519;SDS011;6325;49.540;8.364;2023-07-31T13:36:53;2.45;;;2.17;;
12519;SDS011;6325;49.540;8.364;2023-07-31T13:39:20;2.40;;;2.00;;
12519;SDS011;6325;49.540;8.364;2023-07-31T13:41:47;3.28;;;2.97;;
12519;SDS011;6325;49.540;8.364;2023-07-31T13:44:14;2.58;;;2.20;;
12519;SDS011;6325;49.540;8.364;2023-07-31T13:46:43;2.20;;;2.00;;
12519;SDS011;6325;49.540;8.364;2023-07-31T13:49:10;2.63;;;2.10;;
12519;SDS011;6325;49.540;8.364;2023-07-31T13:51:37;2.92;;;2.58;;
12519;SDS011;6325;49.540;8.364;2023-07-31T13:54:05;3.67;;;2.50;;
12519;SDS011;6325;49.540;8.364;2023-07-31T13:56:32;3.22;;;2.80;;
12519;SDS011;6325;49.540;8.364;2023-07-31T13:59:00;4.60;;;3.50;;
12519;SDS011;6325;49.540;8.364;2023-07-31T14:01:27;7.22;;;4.90;;
12519;SDS011;6325;49.540;8.364;2023-07-31T14:03:55;4.65;;;4.10;;
12519;SDS011;6325;49.540;8.364;2023-07-31T14:06:22;6.80;;;5.10;;
12519;SDS011;6325;49.540;8.364;2023-07-31T14:08:49;10.52;;;6.95;;
12519;SDS011;6325;49.540;8.364;2023-07-31T14:11:17;3.78;;;3.30;;
12519;SDS011;6325;49.540;8.364;2023-07-31T14:13:44;3.70;;;3.40;;
12519;SDS011;6325;49.540;8.364;2023-07-31T14:16:11;7.28;;;5.07;;
12519;SDS011;6325;49.540;8.364;2023-07-31T14:18:38;7.57;;;6.03;;
12519;SDS011;6325;49.540;8.364;2023-07-31T14:21:07;4.88;;;3.65;;
12519;SDS011;6325;49.540;8.364;2023-07-31T14:23:34;2.30;;;2.10;;
12519;SDS011;6325;49.540;8.364;2023-07-31T14:26:01;3.25;;;2.28;;
12519;SDS011;6325;49.540;8.364;2023-07-31T14:28:28;2.40;;;2.20;;
12519;SDS011;6325;49.540;8.364;2023-07-31T14:30:56;2.72;;;2.50;;
12519;SDS011;6325;49.540;8.364;2023-07-31T14:33:23;3.90;;;3.20;;
12519;SDS011;6325;49.540;8.364;2023-07-31T14:35:50;3.00;;;2.70;;
12519;SDS011;6325;49.540;8.364;2023-07-31T14:38:18;4.73;;;3.57;;
12519;SDS011;6325;49.540;8.364;2023-07-31T14:40:45;5.70;;;4.40;;
12519;SDS011;6325;49.540;8.364;2023-07-31T14:43:13;3.35;;;3.05;;
12519;SDS011;6325;49.540;8.364;2023-07-31T14:45:40;2.53;;;2.33;;
12519;SDS011;6325;49.540;8.364;2023-07-31T14:48:07;2.45;;;2.13;;
12519;SDS011;6325;49.540;8.364;2023-07-31T14:50:34;4.57;;;3.00;;
12519;SDS011;6325;49.540;8.364;2023-07-31T14:53:01;2.17;;;1.98;;
12519;SDS011;6325;49.540;8.364;2023-07-31T14:55:30;2.90;;;2.40;;
12519;SDS011;6325;49.540;8.364;2023-07-31T14:57:57;4.50;;;3.90;;
12519;SDS011;6325;49.540;8.364;2023-07-31T15:00:24;4.57;;;3.90;;
12519;SDS011;6325;49.540;8.364;2023-07-31T15:02:51;4.78;;;3.90;;
12519;SDS011;6325;49.540;8.364;2023-07-31T15:05:18;8.18;;;5.60;;
12519;SDS011;6325;49.540;8.364;2023-07-31T15:07:46;6.47;;;5.15;;